createdAt,value
2023-02-02T00:00:25.005Z,6.43
2023-02-02T00:01:27.261Z,6.40
2023-02-02T00:02:30.018Z,5.84
2023-02-02T00:03:31.705Z,6.26
2023-02-02T00:04:35.826Z,6.30
2023-02-02T00:05:37.656Z,6.19
2023-02-02T00:06:39.248Z,6.18
2023-02-02T00:07:40.951Z,5.49
2023-02-02T00:08:42.820Z,6.23
2023-02-02T00:09:44.513Z,6.00
2023-02-02T00:10:46.666Z,6.08
2023-02-02T00:11:50.449Z,6.20
2023-02-02T00:12:57.981Z,5.63
2023-02-02T00:14:00.996Z,6.30
2023-02-02T00:15:02.858Z,6.28
2023-02-02T00:16:26.275Z,6.41
2023-02-02T00:17:29.154Z,5.37
2023-02-02T00:18:33.826Z,5.86
2023-02-02T00:19:35.717Z,5.67
2023-02-02T00:20:37.518Z,6.12
2023-02-02T00:21:39.512Z,6.43
2023-02-02T00:22:41.336Z,5.85
2023-02-02T00:23:43.073Z,5.87
2023-02-02T00:24:44.968Z,6.43
2023-02-02T00:25:49.881Z,6.45
2023-02-02T00:26:54.345Z,6.27
2023-02-02T00:27:56.734Z,5.73
2023-02-02T00:28:58.448Z,6.52
2023-02-02T00:30:00.145Z,6.22
2023-02-02T00:31:01.830Z,6.16
2023-02-02T00:32:03.518Z,6.19
2023-02-02T00:33:05.241Z,6.46
2023-02-02T00:34:07.234Z,6.18
2023-02-02T00:35:09.537Z,6.11
2023-02-02T00:36:11.173Z,5.62
2023-02-02T00:37:12.700Z,6.20
2023-02-02T00:38:14.490Z,6.27
2023-02-02T00:39:19.241Z,6.31
2023-02-02T00:40:21.047Z,5.83
2023-02-02T00:41:22.766Z,5.56
2023-02-02T00:42:24.469Z,6.07
2023-02-02T00:43:26.086Z,6.10
2023-02-02T00:44:46.332Z,6.20
2023-02-02T00:45:48.971Z,6.16
2023-02-02T00:46:50.740Z,6.44
2023-02-02T00:47:52.461Z,5.68
2023-02-02T00:48:54.141Z,6.05
2023-02-02T00:49:55.842Z,5.64
2023-02-02T00:50:58.019Z,6.16
2023-02-02T00:52:00.600Z,6.10
2023-02-02T00:53:02.929Z,6.19
2023-02-02T00:54:05.112Z,6.25
2023-02-02T00:55:08.061Z,6.43
2023-02-02T00:56:09.700Z,5.81
2023-02-02T00:57:14.649Z,5.64
2023-02-02T00:58:16.457Z,6.30
2023-02-02T00:59:18.259Z,6.24
2023-02-02T01:00:24.543Z,6.48
2023-02-02T01:01:26.597Z,6.10
2023-02-02T01:02:28.515Z,5.89
2023-02-02T01:03:33.183Z,5.85
2023-02-02T01:04:35.124Z,6.36
2023-02-02T01:05:36.982Z,6.08
2023-02-02T01:06:42.306Z,5.58
2023-02-02T01:07:44.772Z,6.40
2023-02-02T01:08:47.010Z,5.80
2023-02-02T01:09:48.617Z,5.76
2023-02-02T01:10:50.290Z,6.08
2023-02-02T01:11:51.930Z,6.35
2023-02-02T01:12:53.665Z,5.57
2023-02-02T01:13:58.270Z,6.32
2023-02-02T01:14:59.838Z,5.56
2023-02-02T01:16:02.880Z,6.40
2023-02-02T01:17:05.512Z,6.16
2023-02-02T01:18:07.211Z,6.03
2023-02-02T01:19:09.231Z,6.19
2023-02-02T01:20:16.949Z,5.93
2023-02-02T01:21:18.958Z,5.44
2023-02-02T01:22:20.694Z,5.94
2023-02-02T01:23:22.394Z,5.60
2023-02-02T01:24:24.061Z,5.37
2023-02-02T01:25:27.448Z,5.98
2023-02-02T01:26:29.171Z,5.93
2023-02-02T01:27:33.372Z,5.34
2023-02-02T01:28:36.678Z,5.39
2023-02-02T01:29:38.422Z,5.21
2023-02-02T01:30:40.160Z,5.04
2023-02-02T01:31:42.345Z,5.66
2023-02-02T01:32:44.044Z,5.78
2023-02-02T01:33:47.071Z,5.80
2023-02-02T01:34:48.865Z,5.59
2023-02-02T01:35:54.158Z,5.81
2023-02-02T01:36:56.039Z,5.53
2023-02-02T01:37:57.897Z,5.54
2023-02-02T01:38:59.408Z,5.71
2023-02-02T01:40:01.147Z,4.71
2023-02-02T01:41:07.213Z,5.44
2023-02-02T01:42:20.178Z,5.76
2023-02-02T01:43:30.874Z,5.73
2023-02-02T01:44:51.204Z,5.73
2023-02-02T01:45:54.492Z,5.11
2023-02-02T01:46:56.167Z,4.98
2023-02-02T01:48:00.452Z,5.72
2023-02-02T01:49:20.591Z,5.70
2023-02-02T01:50:26.939Z,5.40
2023-02-02T01:51:50.093Z,5.72
2023-02-02T01:52:55.531Z,5.29
2023-02-02T01:53:59.669Z,5.48
2023-02-02T01:55:08.322Z,5.11
2023-02-02T01:56:15.742Z,5.38
2023-02-02T01:57:32.272Z,5.29
2023-02-02T01:58:38.760Z,5.55
2023-02-02T01:59:41.736Z,5.78
2023-02-02T02:00:46.630Z,5.76
2023-02-02T02:01:49.344Z,5.49
2023-02-02T02:02:52.981Z,5.40
2023-02-02T02:03:56.310Z,5.78
2023-02-02T02:05:04.945Z,5.02
2023-02-02T02:06:10.378Z,5.63
2023-02-02T02:07:14.404Z,5.91
2023-02-02T02:08:20.037Z,5.89
2023-02-02T02:09:24.655Z,5.37
2023-02-02T02:10:26.313Z,5.15
2023-02-02T02:11:27.968Z,5.62
2023-02-02T02:12:29.616Z,5.88
2023-02-02T02:13:56.669Z,5.82
2023-02-02T02:15:17.781Z,5.55
2023-02-02T02:16:46.631Z,5.78
2023-02-02T02:18:08.683Z,5.56
2023-02-02T02:19:21.984Z,5.74
2023-02-02T02:21:09.150Z,5.81
2023-02-02T02:22:35.554Z,5.77
2023-02-02T02:24:33.499Z,5.81
2023-02-02T02:26:29.396Z,5.78
2023-02-02T02:28:00.633Z,5.72
2023-02-02T02:29:41.885Z,5.67
2023-02-02T02:31:18.045Z,5.69
2023-02-02T02:32:36.707Z,5.54
2023-02-02T02:33:58.357Z,5.63
2023-02-02T02:35:18.524Z,5.60
2023-02-02T02:36:38.754Z,5.02
2023-02-02T02:38:15.460Z,5.32
2023-02-02T02:39:20.385Z,5.27
2023-02-02T02:40:38.202Z,5.49
2023-02-02T02:41:46.099Z,5.25
2023-02-02T02:42:55.044Z,5.28
2023-02-02T02:44:01.232Z,5.31
2023-02-02T02:45:06.044Z,4.73
2023-02-02T02:46:09.771Z,5.01
2023-02-02T02:47:11.512Z,4.41
2023-02-02T02:48:13.531Z,5.47
2023-02-02T02:49:15.735Z,5.51
2023-02-02T02:50:17.531Z,4.72
2023-02-02T02:51:49.056Z,5.46
2023-02-02T02:53:01.809Z,5.22
2023-02-02T02:54:03.822Z,5.28
2023-02-02T02:55:08.192Z,5.16
2023-02-02T02:56:09.765Z,5.18
2023-02-02T02:57:28.782Z,5.45
2023-02-02T02:58:51.382Z,5.42
2023-02-02T03:00:09.599Z,5.27
2023-02-02T03:01:17.740Z,5.39
2023-02-02T03:02:47.282Z,5.42
2023-02-02T03:04:03.683Z,5.43
2023-02-02T03:05:52.693Z,5.47
2023-02-02T03:07:01.648Z,5.28
2023-02-02T03:08:10.170Z,4.69
2023-02-02T03:09:25.691Z,5.27
2023-02-02T03:10:30.638Z,5.34
2023-02-02T03:11:35.499Z,4.98
2023-02-02T03:12:47.974Z,5.20
2023-02-02T03:13:50.224Z,5.41
2023-02-02T03:14:51.886Z,5.02
2023-02-02T03:15:54.520Z,5.36
2023-02-02T03:16:56.148Z,4.49
2023-02-02T03:17:58.011Z,5.21
2023-02-02T03:18:59.598Z,5.12
2023-02-02T03:20:01.280Z,5.39
2023-02-02T03:21:03.129Z,5.34
2023-02-02T03:22:05.088Z,5.34
2023-02-02T03:23:06.692Z,4.96
2023-02-02T03:24:08.480Z,4.45
2023-02-02T03:25:13.474Z,5.31
2023-02-02T03:26:15.186Z,5.28
2023-02-02T03:27:16.972Z,5.19
2023-02-02T03:28:20.023Z,4.37
2023-02-02T03:29:21.820Z,5.00
2023-02-02T03:30:23.580Z,5.32
2023-02-02T03:31:27.813Z,3.96
2023-02-02T03:32:29.472Z,5.10
2023-02-02T03:33:33.309Z,4.54
2023-02-02T03:34:34.975Z,4.39
2023-02-02T03:35:36.740Z,5.24
2023-02-02T03:36:38.435Z,5.08
2023-02-02T03:37:40.214Z,5.11
2023-02-02T03:38:41.952Z,5.07
2023-02-02T03:39:43.459Z,4.54
2023-02-02T03:40:45.121Z,5.15
2023-02-02T03:41:46.744Z,4.69
2023-02-02T03:42:48.501Z,5.40
2023-02-02T03:43:50.272Z,5.10
2023-02-02T03:44:52.306Z,5.27
2023-02-02T03:45:59.013Z,5.11
2023-02-02T03:47:00.631Z,4.99
2023-02-02T03:48:05.931Z,4.97
2023-02-02T03:49:07.558Z,4.98
2023-02-02T03:50:10.085Z,5.10
2023-02-02T03:51:14.757Z,5.37
2023-02-02T03:52:16.381Z,5.19
2023-02-02T03:53:18.128Z,4.86
2023-02-02T03:54:19.728Z,5.28
2023-02-02T03:55:22.307Z,5.19
2023-02-02T03:56:24.064Z,5.40
2023-02-02T03:57:26.027Z,4.63
2023-02-02T03:58:27.640Z,5.27
2023-02-02T03:59:29.475Z,5.07
2023-02-02T04:00:31.253Z,5.08
2023-02-02T04:01:32.955Z,5.36
2023-02-02T04:02:34.589Z,5.10
2023-02-02T04:03:36.279Z,4.41
2023-02-02T04:04:38.030Z,5.12
2023-02-02T04:05:39.775Z,4.82
2023-02-02T04:06:41.771Z,5.04
2023-02-02T04:07:43.665Z,5.26
2023-02-02T04:08:45.334Z,4.07
2023-02-02T04:09:47.032Z,4.51
2023-02-02T04:10:48.605Z,5.04
2023-02-02T04:11:50.238Z,4.54
2023-02-02T04:12:52.240Z,5.00
2023-02-02T04:13:53.992Z,5.29
2023-02-02T04:14:55.734Z,4.80
2023-02-02T04:16:01.802Z,5.39
2023-02-02T04:17:05.485Z,4.85
2023-02-02T04:18:07.174Z,4.98
2023-02-02T04:19:08.832Z,5.29
2023-02-02T04:20:11.162Z,5.35
2023-02-02T04:21:12.745Z,4.54
2023-02-02T04:22:14.393Z,5.02
2023-02-02T04:23:18.267Z,4.64
2023-02-02T04:24:23.780Z,5.40
2023-02-02T04:25:26.227Z,4.88
2023-02-02T04:26:28.505Z,5.40
2023-02-02T04:27:32.724Z,4.91
2023-02-02T04:28:34.473Z,5.39
2023-02-02T04:29:36.043Z,4.99
2023-02-02T04:30:37.713Z,4.69
2023-02-02T04:31:39.329Z,5.28
2023-02-02T04:32:41.010Z,5.33
2023-02-02T04:33:42.512Z,4.65
2023-02-02T04:34:44.623Z,5.27
2023-02-02T04:35:46.403Z,4.89
2023-02-02T04:36:48.042Z,4.86
2023-02-02T04:37:49.708Z,5.51
2023-02-02T04:38:53.300Z,5.46
2023-02-02T04:39:55.592Z,5.08
2023-02-02T04:40:57.436Z,5.52
2023-02-02T04:41:59.554Z,5.01
2023-02-02T04:43:01.278Z,5.37
2023-02-02T04:44:03.026Z,4.80
2023-02-02T04:45:05.151Z,4.81
2023-02-02T04:46:06.982Z,5.31
2023-02-02T04:47:08.608Z,5.73
2023-02-02T04:48:10.635Z,5.53
2023-02-02T04:49:12.326Z,5.47
2023-02-02T04:50:14.046Z,5.52
2023-02-02T04:51:15.807Z,5.19
2023-02-02T04:52:18.046Z,5.09
2023-02-02T04:53:19.955Z,5.31
2023-02-02T04:54:21.742Z,5.62
2023-02-02T04:55:24.340Z,5.79
2023-02-02T04:56:26.839Z,5.20
2023-02-02T04:57:28.613Z,5.37
2023-02-02T04:58:31.029Z,5.59
2023-02-02T04:59:32.721Z,5.86
2023-02-02T05:00:34.612Z,5.84
2023-02-02T05:01:36.510Z,6.02
2023-02-02T05:02:41.258Z,6.03
2023-02-02T05:03:43.262Z,5.72
2023-02-02T05:04:45.201Z,6.03
2023-02-02T05:05:50.044Z,5.78
2023-02-02T05:06:51.907Z,5.91
2023-02-02T05:07:53.468Z,5.55
2023-02-02T05:08:55.122Z,5.95
2023-02-02T05:09:56.764Z,5.46
2023-02-02T05:10:58.663Z,6.23
2023-02-02T05:12:00.268Z,6.16
2023-02-02T05:13:01.905Z,5.87
2023-02-02T05:14:03.956Z,6.34
2023-02-02T05:15:06.073Z,6.10
2023-02-02T05:16:07.773Z,5.71
2023-02-02T05:17:09.571Z,6.34
2023-02-02T05:18:11.208Z,6.04
2023-02-02T05:19:16.827Z,6.38
2023-02-02T05:20:18.688Z,6.07
2023-02-02T05:21:21.439Z,6.03
2023-02-02T05:22:23.154Z,5.83
2023-02-02T05:23:24.861Z,5.99
2023-02-02T05:24:27.750Z,5.79
2023-02-02T05:25:29.354Z,6.29
2023-02-02T05:26:33.701Z,5.64
2023-02-02T05:27:35.891Z,5.93
2023-02-02T05:28:37.583Z,6.08
2023-02-02T05:29:39.134Z,6.32
2023-02-02T05:30:43.758Z,5.44
2023-02-02T05:31:46.397Z,5.16
2023-02-02T05:32:48.141Z,6.11
2023-02-02T05:33:52.595Z,5.63
2023-02-02T05:34:54.271Z,5.87
2023-02-02T05:35:56.089Z,6.42
2023-02-02T05:36:57.712Z,5.65
2023-02-02T05:37:59.455Z,5.37
2023-02-02T05:39:01.438Z,6.09
2023-02-02T05:40:03.811Z,6.23
2023-02-02T05:41:05.808Z,5.77
2023-02-02T05:42:07.582Z,6.29
2023-02-02T05:43:09.249Z,5.55
2023-02-02T05:44:14.928Z,5.45
2023-02-02T05:45:16.856Z,5.07
2023-02-02T05:46:18.608Z,5.48
2023-02-02T05:47:20.529Z,5.27
2023-02-02T05:48:22.301Z,4.84
2023-02-02T05:49:26.573Z,6.16
2023-02-02T05:50:28.510Z,5.91
2023-02-02T05:51:33.814Z,5.86
2023-02-02T05:52:37.451Z,5.99
2023-02-02T05:53:39.110Z,4.84
2023-02-02T05:54:43.134Z,5.84
2023-02-02T05:55:50.459Z,6.16
2023-02-02T05:56:54.575Z,6.23
2023-02-02T05:57:56.220Z,5.98
2023-02-02T05:58:57.895Z,5.86
2023-02-02T05:59:59.693Z,5.95
2023-02-02T06:01:01.342Z,5.94
2023-02-02T06:02:03.225Z,5.97
2023-02-02T06:03:05.121Z,5.78
2023-02-02T06:04:07.060Z,5.89
2023-02-02T06:05:09.189Z,5.78
2023-02-02T06:06:11.061Z,5.93
2023-02-02T06:07:13.357Z,5.69
2023-02-02T06:08:15.015Z,5.16
2023-02-02T06:09:16.963Z,5.50
2023-02-02T06:10:18.736Z,5.76
2023-02-02T06:11:20.370Z,5.61
2023-02-02T06:12:22.121Z,5.55
2023-02-02T06:13:23.733Z,5.77
2023-02-02T06:14:25.433Z,5.78
2023-02-02T06:15:29.036Z,4.69
2023-02-02T06:16:31.056Z,5.72
2023-02-02T06:17:32.648Z,5.38
2023-02-02T06:18:35.285Z,4.95
2023-02-02T06:19:36.826Z,5.14
2023-02-02T06:20:38.581Z,5.30
2023-02-02T06:21:40.342Z,4.88
2023-02-02T06:22:43.804Z,5.55
2023-02-02T06:23:46.287Z,5.53
2023-02-02T06:24:47.992Z,5.39
2023-02-02T06:25:49.551Z,5.43
2023-02-02T06:26:51.248Z,4.89
2023-02-02T06:27:59.898Z,4.70
2023-02-02T06:29:01.512Z,5.30
2023-02-02T06:30:03.406Z,5.01
2023-02-02T06:31:07.168Z,5.51
2023-02-02T06:32:08.888Z,5.55
2023-02-02T06:33:10.827Z,5.17
2023-02-02T06:34:15.252Z,5.41
2023-02-02T06:35:17.372Z,4.53
2023-02-02T06:36:19.248Z,5.36
2023-02-02T06:37:21.251Z,4.34
2023-02-02T06:38:22.847Z,5.00
2023-02-02T06:39:24.559Z,5.55
2023-02-02T06:40:28.506Z,5.19
2023-02-02T06:41:31.659Z,4.73
2023-02-02T06:42:34.225Z,4.99
2023-02-02T06:43:38.241Z,4.85
2023-02-02T06:44:40.271Z,5.50
2023-02-02T06:45:42.239Z,4.59
2023-02-02T06:46:44.166Z,4.06
2023-02-02T06:47:48.794Z,5.50
2023-02-02T06:48:50.806Z,5.62
2023-02-02T06:49:53.124Z,4.98
2023-02-02T06:50:58.205Z,5.40
2023-02-02T06:52:02.922Z,5.26
2023-02-02T06:53:05.298Z,5.31
2023-02-02T06:54:12.664Z,5.37
2023-02-02T06:55:23.084Z,4.68
2023-02-02T06:56:25.107Z,4.82
2023-02-02T06:57:26.916Z,5.26
2023-02-02T06:58:30.487Z,5.55
2023-02-02T06:59:34.593Z,4.22
2023-02-02T07:00:38.601Z,4.91
2023-02-02T07:01:40.400Z,5.10
2023-02-02T07:02:45.680Z,5.31
2023-02-02T07:03:53.970Z,4.52
2023-02-02T07:04:55.883Z,5.50
2023-02-02T07:05:57.543Z,5.33
2023-02-02T07:06:59.169Z,5.60
2023-02-02T07:08:00.762Z,5.52
2023-02-02T07:09:03.513Z,5.35
2023-02-02T07:10:05.677Z,5.44
2023-02-02T07:11:12.825Z,4.79
2023-02-02T07:12:17.943Z,5.61
2023-02-02T07:13:19.513Z,5.66
2023-02-02T07:14:21.132Z,5.51
2023-02-02T07:15:23.158Z,5.49
2023-02-02T07:16:25.120Z,5.20
2023-02-02T07:17:27.296Z,4.60
2023-02-02T07:18:29.412Z,5.52
2023-02-02T07:19:38.294Z,5.09
2023-02-02T07:20:45.929Z,5.34
2023-02-02T07:21:52.238Z,5.19
2023-02-02T07:22:56.175Z,4.75
2023-02-02T07:24:10.841Z,4.17
2023-02-02T07:25:15.347Z,4.23
2023-02-02T07:26:19.147Z,4.19
2023-02-02T07:27:26.504Z,5.49
2023-02-02T07:28:28.737Z,5.69
2023-02-02T07:29:30.525Z,5.35
2023-02-02T07:30:32.718Z,5.65
2023-02-02T07:31:36.541Z,5.66
2023-02-02T07:32:38.546Z,5.56
2023-02-02T07:33:42.221Z,5.81
2023-02-02T07:34:44.413Z,4.88
2023-02-02T07:35:46.118Z,5.19
2023-02-02T07:36:50.424Z,5.84
2023-02-02T07:37:53.883Z,5.60
2023-02-02T07:38:57.338Z,5.12
2023-02-02T07:39:59.412Z,5.93
2023-02-02T07:41:01.484Z,5.83
2023-02-02T07:42:04.072Z,5.77
2023-02-02T07:43:05.822Z,5.42
2023-02-02T07:44:16.004Z,5.20
2023-02-02T07:45:26.490Z,5.77
2023-02-02T07:46:30.321Z,5.47
2023-02-02T07:47:32.066Z,5.08
2023-02-02T07:48:37.230Z,5.47
2023-02-02T07:49:42.329Z,4.66
2023-02-02T07:50:49.930Z,5.07
2023-02-02T07:51:51.593Z,5.54
2023-02-02T07:52:53.354Z,5.75
2023-02-02T07:53:58.536Z,5.99
2023-02-02T07:55:13.884Z,5.61
2023-02-02T07:56:19.642Z,5.50
2023-02-02T07:57:29.929Z,6.04
2023-02-02T07:58:31.560Z,5.61
2023-02-02T07:59:33.259Z,6.08
2023-02-02T08:00:34.910Z,6.08
2023-02-02T08:01:36.917Z,5.45
2023-02-02T08:02:39.480Z,5.71
2023-02-02T08:03:45.355Z,6.11
2023-02-02T08:04:47.740Z,6.43
2023-02-02T08:05:49.471Z,6.44
2023-02-02T08:06:51.248Z,6.44
2023-02-02T08:07:52.963Z,6.32
2023-02-02T08:08:54.738Z,6.34
2023-02-02T08:09:56.382Z,6.30
2023-02-02T08:10:59.442Z,6.29
2023-02-02T08:12:02.514Z,6.57
2023-02-02T08:13:04.151Z,5.65
2023-02-02T08:14:06.673Z,6.53
2023-02-02T08:15:08.868Z,6.41
2023-02-02T08:16:11.701Z,6.56
2023-02-02T08:17:13.456Z,6.74
2023-02-02T08:18:15.737Z,5.79
2023-02-02T08:19:17.557Z,6.61
2023-02-02T08:20:19.478Z,6.09
2023-02-02T08:21:21.904Z,6.95
2023-02-02T08:22:23.684Z,6.09
2023-02-02T08:23:25.686Z,6.80
2023-02-02T08:24:27.365Z,6.72
2023-02-02T08:25:29.108Z,6.42
2023-02-02T08:26:31.775Z,6.97
2023-02-02T08:27:33.516Z,6.44
2023-02-02T08:28:36.593Z,7.06
2023-02-02T08:29:39.124Z,6.84
2023-02-02T08:30:40.762Z,6.86
2023-02-02T08:31:44.802Z,7.15
2023-02-02T08:32:49.884Z,7.21
2023-02-02T08:33:55.013Z,6.45
2023-02-02T08:34:57.186Z,6.48
2023-02-02T08:35:59.163Z,6.65
2023-02-02T08:37:04.224Z,6.16
2023-02-02T08:38:10.054Z,7.29
2023-02-02T08:39:14.573Z,6.82
2023-02-02T08:40:16.480Z,7.07
2023-02-02T08:41:21.085Z,6.83
2023-02-02T08:42:22.839Z,6.83
2023-02-02T08:43:24.550Z,6.52
2023-02-02T08:44:27.845Z,6.98
2023-02-02T08:46:13.695Z,6.98
2023-02-02T08:47:11.982Z,7.23
2023-02-02T08:48:14.395Z,7.22
2023-02-02T08:49:16.224Z,6.96
2023-02-02T08:50:18.253Z,6.62
2023-02-02T08:51:20.459Z,6.94
2023-02-02T08:52:23.175Z,6.50
2023-02-02T08:53:27.851Z,7.02
2023-02-02T08:54:29.454Z,6.29
2023-02-02T08:55:31.085Z,7.04
2023-02-02T08:56:32.695Z,6.92
2023-02-02T08:57:34.519Z,6.47
2023-02-02T08:58:36.118Z,7.06
2023-02-02T08:59:38.015Z,7.13
2023-02-02T09:00:39.858Z,6.53
2023-02-02T09:01:41.697Z,6.96
2023-02-02T09:02:44.507Z,7.23
2023-02-02T09:03:46.941Z,6.30
2023-02-02T09:04:48.841Z,7.32
2023-02-02T09:05:50.504Z,6.81
2023-02-02T09:06:52.580Z,6.86
2023-02-02T09:07:56.151Z,7.04
2023-02-02T09:09:00.248Z,7.25
2023-02-02T09:10:04.665Z,7.05
2023-02-02T09:11:11.689Z,7.40
2023-02-02T09:12:13.705Z,7.43
2023-02-02T09:13:15.371Z,6.99
2023-02-02T09:14:17.064Z,7.53
2023-02-02T09:15:18.816Z,6.95
2023-02-02T09:16:21.598Z,7.54
2023-02-02T09:17:24.272Z,6.36
2023-02-02T09:18:26.406Z,7.00
2023-02-02T09:19:28.885Z,6.90
2023-02-02T09:20:30.865Z,7.01
2023-02-02T09:21:38.070Z,7.07
2023-02-02T09:22:40.002Z,6.80
2023-02-02T09:23:46.897Z,7.65
2023-02-02T09:24:49.152Z,6.83
2023-02-02T09:25:51.031Z,7.36
2023-02-02T09:26:53.180Z,6.74
2023-02-02T09:27:55.123Z,7.47
2023-02-02T09:28:59.099Z,6.92
2023-02-02T09:30:00.925Z,6.83
2023-02-02T09:31:05.189Z,7.06
2023-02-02T09:32:07.818Z,7.13
2023-02-02T09:33:09.833Z,6.76
2023-02-02T09:34:14.367Z,6.88
2023-02-02T09:35:19.384Z,7.59
2023-02-02T09:36:24.067Z,6.20
2023-02-02T09:37:26.943Z,6.79
2023-02-02T09:38:29.105Z,7.46
2023-02-02T09:39:31.214Z,7.43
2023-02-02T09:40:35.411Z,7.26
2023-02-02T09:41:37.194Z,7.06
2023-02-02T09:43:04.756Z,6.74
2023-02-02T09:44:21.927Z,7.30
2023-02-02T09:45:33.664Z,6.64
2023-02-02T09:47:14.287Z,6.25
2023-02-02T09:48:29.291Z,7.08
2023-02-02T09:49:37.159Z,7.20
2023-02-02T09:50:47.764Z,7.17
2023-02-02T09:51:57.038Z,6.25
2023-02-02T09:53:20.436Z,7.30
2023-02-02T09:54:27.380Z,6.81
2023-02-02T09:55:45.302Z,6.85
2023-02-02T09:56:57.299Z,7.09
2023-02-02T09:58:19.735Z,7.25
2023-02-02T09:59:31.014Z,7.06
2023-02-02T10:00:39.745Z,6.95
2023-02-02T10:01:45.246Z,6.47
2023-02-02T10:02:50.041Z,6.13
2023-02-02T10:04:22.667Z,7.12
2023-02-02T10:05:29.989Z,6.53
2023-02-02T10:06:43.786Z,7.13
2023-02-02T10:07:51.954Z,7.15
2023-02-02T10:09:03.898Z,7.11
2023-02-02T10:10:32.683Z,7.12
2023-02-02T10:11:55.850Z,7.19
2023-02-02T10:13:16.169Z,7.20
2023-02-02T10:14:28.085Z,7.04
2023-02-02T10:15:55.667Z,7.26
2023-02-02T10:17:03.245Z,6.69
2023-02-02T10:18:33.419Z,7.36
2023-02-02T10:19:36.801Z,7.49
2023-02-02T10:20:53.951Z,7.36
2023-02-02T10:22:21.342Z,7.51
2023-02-02T10:23:41.021Z,7.42
2023-02-02T10:24:42.718Z,7.00
2023-02-02T10:25:55.130Z,7.45
2023-02-02T10:27:04.316Z,7.43
2023-02-02T10:28:11.821Z,7.29
2023-02-02T10:29:47.803Z,7.52
2023-02-02T10:31:01.322Z,7.62
2023-02-02T10:32:05.684Z,7.63
2023-02-02T10:33:19.912Z,7.39
2023-02-02T10:34:43.988Z,7.69
2023-02-02T10:35:53.560Z,7.03
2023-02-02T10:37:21.444Z,7.82
2023-02-02T10:38:29.168Z,7.83
2023-02-02T10:39:53.221Z,7.80
2023-02-02T10:41:20.008Z,7.66
2023-02-02T10:42:27.961Z,7.64
2023-02-02T10:43:47.453Z,7.74
2023-02-02T10:44:54.766Z,7.70
2023-02-02T10:45:57.225Z,7.68
2023-02-02T10:47:03.922Z,7.40
2023-02-02T10:48:22.194Z,7.50
2023-02-02T10:49:33.281Z,7.89
2023-02-02T10:50:35.589Z,7.77
2023-02-02T10:51:38.015Z,7.79
2023-02-02T10:52:47.676Z,7.99
2023-02-02T10:53:58.943Z,8.13
2023-02-02T10:55:19.326Z,8.16
2023-02-02T10:56:35.767Z,8.12
2023-02-02T10:58:00.546Z,7.88
2023-02-02T10:59:11.742Z,7.79
2023-02-02T11:00:25.094Z,7.93
2023-02-02T11:01:27.184Z,7.96
2023-02-02T11:02:29.006Z,7.86
2023-02-02T11:03:34.535Z,7.95
2023-02-02T11:04:56.035Z,8.08
2023-02-02T11:06:20.230Z,8.10
2023-02-02T11:07:22.013Z,7.83
2023-02-02T11:08:40.247Z,8.25
2023-02-02T11:09:42.905Z,8.27
2023-02-02T11:10:45.728Z,8.35
2023-02-02T11:11:51.928Z,8.16
2023-02-02T11:12:57.065Z,7.86
2023-02-02T11:14:07.749Z,8.43
2023-02-02T11:15:27.020Z,8.35
2023-02-02T11:16:42.045Z,7.76
2023-02-02T11:17:45.311Z,7.62
2023-02-02T11:18:46.970Z,8.01
2023-02-02T11:19:50.134Z,7.71
2023-02-02T11:20:51.755Z,8.00
2023-02-02T11:21:56.932Z,7.92
2023-02-02T11:23:03.721Z,8.67
2023-02-02T11:24:19.488Z,8.43
2023-02-02T11:25:28.065Z,8.62
2023-02-02T11:26:56.017Z,8.42
2023-02-02T11:27:58.833Z,8.23
2023-02-02T11:29:01.241Z,8.71
2023-02-02T11:30:26.024Z,8.83
2023-02-02T11:31:36.299Z,8.93
2023-02-02T11:32:38.188Z,8.77
2023-02-02T11:33:39.878Z,8.58
2023-02-02T11:34:41.504Z,8.63
2023-02-02T11:35:57.531Z,8.72
2023-02-02T11:37:17.942Z,8.74
2023-02-02T11:38:19.640Z,8.55
2023-02-02T11:39:21.625Z,8.51
2023-02-02T11:40:28.868Z,7.98
2023-02-02T11:41:31.698Z,8.43
2023-02-02T11:42:34.004Z,8.37
2023-02-02T11:43:48.080Z,8.47
2023-02-02T11:44:58.024Z,8.11
2023-02-02T11:46:05.354Z,8.56
2023-02-02T11:47:07.237Z,8.60
2023-02-02T11:48:18.205Z,8.59
2023-02-02T11:49:22.191Z,8.50
2023-02-02T11:50:27.704Z,8.23
2023-02-02T11:51:31.207Z,8.70
2023-02-02T11:52:33.901Z,8.09
2023-02-02T11:53:47.730Z,8.34
2023-02-02T11:54:56.891Z,8.69
2023-02-02T11:56:06.256Z,8.11
2023-02-02T11:57:10.698Z,8.33
2023-02-02T11:58:25.189Z,8.91
2023-02-02T11:59:28.532Z,8.25
2023-02-02T12:00:30.870Z,8.19
2023-02-02T12:01:44.177Z,8.41
2023-02-02T12:02:48.152Z,8.47
2023-02-02T12:03:50.164Z,7.75
2023-02-02T12:05:10.987Z,8.57
2023-02-02T12:06:26.916Z,8.66
2023-02-02T12:07:29.895Z,8.00
2023-02-02T12:08:31.571Z,8.38
2023-02-02T12:09:33.204Z,7.80
2023-02-02T12:10:59.750Z,8.54
2023-02-02T12:12:07.342Z,8.54
2023-02-02T12:13:30.575Z,8.29
2023-02-02T12:14:51.030Z,8.49
2023-02-02T12:16:26.783Z,8.44
2023-02-02T12:17:45.559Z,8.36
2023-02-02T12:19:08.334Z,8.44
2023-02-02T12:20:19.515Z,8.55
2023-02-02T12:21:34.773Z,8.44
2023-02-02T12:23:06.587Z,8.35
2023-02-02T12:24:34.757Z,8.24
2023-02-02T12:25:59.204Z,8.21
2023-02-02T12:27:03.863Z,8.27
2023-02-02T12:28:48.497Z,8.22
2023-02-02T12:30:25.901Z,8.24
2023-02-02T12:32:00.007Z,8.27
2023-02-02T12:33:23.469Z,7.98
2023-02-02T12:35:03.751Z,8.21
2023-02-02T12:36:14.254Z,8.25
2023-02-02T12:37:15.927Z,8.21
2023-02-02T12:38:46.063Z,8.22
2023-02-02T12:40:13.742Z,8.24
2023-02-02T12:41:15.482Z,8.28
2023-02-02T12:42:35.813Z,8.34
2023-02-02T12:43:41.745Z,8.28
2023-02-02T12:44:50.966Z,8.26
2023-02-02T12:45:55.788Z,8.24
2023-02-02T12:47:30.927Z,7.99
2023-02-02T12:49:00.157Z,7.96
2023-02-02T12:50:23.644Z,7.96
2023-02-02T12:51:31.319Z,8.19
2023-02-02T12:53:07.354Z,8.21
2023-02-02T12:54:46.132Z,8.15
2023-02-02T12:56:23.008Z,7.71
2023-02-02T12:57:42.775Z,8.21
2023-02-02T12:59:21.425Z,8.16
2023-02-02T13:01:01.139Z,8.15
2023-02-02T13:02:17.188Z,8.15
2023-02-02T13:03:27.793Z,8.15
2023-02-02T13:04:57.489Z,8.20
2023-02-02T13:06:04.738Z,8.09
2023-02-02T13:07:44.333Z,8.23
2023-02-02T13:09:10.173Z,7.89
2023-02-02T13:10:41.046Z,8.14
2023-02-02T13:11:56.390Z,8.10
2023-02-02T13:13:04.855Z,8.02
2023-02-02T13:14:13.624Z,8.23
2023-02-02T13:15:22.909Z,8.02
2023-02-02T13:16:27.099Z,8.22
2023-02-02T13:17:52.873Z,8.21
2023-02-02T13:19:04.868Z,8.01
2023-02-02T13:20:38.240Z,8.13
2023-02-02T13:21:43.037Z,7.95
2023-02-02T13:22:48.054Z,8.00
2023-02-02T13:23:52.541Z,8.27
2023-02-02T13:24:59.445Z,7.83
2023-02-02T13:26:07.301Z,8.22
2023-02-02T13:27:13.120Z,8.27
2023-02-02T13:28:30.582Z,8.23
2023-02-02T13:29:47.729Z,8.26
2023-02-02T13:30:51.468Z,8.10
2023-02-02T13:32:32.043Z,8.20
2023-02-02T13:33:37.188Z,8.22
2023-02-02T13:34:44.962Z,8.22
2023-02-02T13:35:54.691Z,8.29
2023-02-02T13:37:12.734Z,8.18
2023-02-02T13:38:23.515Z,8.25
2023-02-02T13:39:41.954Z,8.24
2023-02-02T13:40:44.638Z,8.34
2023-02-02T13:41:47.695Z,7.36
2023-02-02T13:43:11.416Z,8.21
2023-02-02T13:44:32.204Z,8.15
2023-02-02T13:45:42.833Z,8.30
2023-02-02T13:47:03.230Z,8.06
2023-02-02T13:48:13.945Z,8.24
2023-02-02T13:49:37.117Z,8.32
2023-02-02T13:50:51.047Z,8.26
2023-02-02T13:51:54.227Z,8.28
2023-02-02T13:52:56.079Z,8.30
2023-02-02T13:54:35.566Z,8.27
2023-02-02T13:56:02.967Z,8.31
2023-02-02T13:57:28.959Z,8.28
2023-02-02T13:59:04.681Z,8.30
2023-02-02T14:00:29.554Z,8.37
2023-02-02T14:01:32.326Z,8.28
2023-02-02T14:02:49.360Z,8.38
2023-02-02T14:03:58.347Z,8.09
2023-02-02T14:05:04.261Z,8.42
2023-02-02T14:06:15.571Z,8.42
2023-02-02T14:07:31.220Z,8.37
2023-02-02T14:08:34.357Z,8.36
2023-02-02T14:09:38.346Z,8.09
2023-02-02T14:10:44.738Z,7.70
2023-02-02T14:11:59.213Z,7.76
2023-02-02T14:13:39.381Z,8.06
2023-02-02T14:14:46.701Z,7.69
2023-02-02T14:15:55.629Z,8.19
2023-02-02T14:16:59.349Z,7.72
2023-02-02T14:18:01.026Z,7.65
2023-02-02T14:19:04.538Z,8.32
2023-02-02T14:20:26.395Z,8.09
2023-02-02T14:21:37.080Z,8.36
2023-02-02T14:22:48.145Z,8.20
2023-02-02T14:23:53.207Z,8.01
2023-02-02T14:24:55.428Z,7.88
2023-02-02T14:26:10.009Z,8.13
2023-02-02T14:27:11.840Z,8.32
2023-02-02T14:28:44.280Z,8.09
2023-02-02T14:29:47.023Z,8.28
2023-02-02T14:31:28.161Z,8.27
2023-02-02T14:32:41.122Z,8.29
2023-02-02T14:33:47.613Z,7.93
2023-02-02T14:35:19.454Z,8.33
2023-02-02T14:36:22.483Z,8.17
2023-02-02T14:37:24.099Z,8.31
2023-02-02T14:38:52.863Z,7.98
2023-02-02T14:40:06.431Z,8.32
2023-02-02T14:41:41.351Z,8.30
2023-02-02T14:43:39.507Z,8.28
2023-02-02T14:45:11.092Z,8.35
2023-02-02T14:46:12.900Z,8.30
2023-02-02T14:47:42.514Z,8.30
2023-02-02T14:48:48.143Z,8.29
2023-02-02T14:49:50.400Z,8.26
2023-02-02T14:50:55.172Z,8.27
2023-02-02T14:52:01.517Z,8.12
2023-02-02T14:53:29.447Z,8.24
2023-02-02T14:54:35.935Z,8.20
2023-02-02T14:55:55.878Z,8.21
2023-02-02T14:57:26.569Z,8.27
2023-02-02T14:58:34.229Z,8.09
2023-02-02T14:59:40.415Z,8.19
2023-02-02T15:00:42.260Z,8.18